Stony Rapids Airport

Airport
ICAO code: 
CYSF
IATA Code: 
YSF
Summary
ICAO Region: 
NAM
Territory: 
Location: 
Stony Rapids, Saskatchewan
Serving: 
Stony Rapids
Elevation: 
801 ft
Coordinates: 
Aerial View: 
59° 15' 4.101" N, 105° 50' 29.755" W
Airport CFIT: 
Altimeter Temperature Error Correction
Metar
Observation
CYSF 271100Z AUTO 26013G21KT 9SM -SN OVC016 M08/M10 A2968 RMK SLP073
Station
Stony Rapids Airport
Date/Time
2021-11-27 11:00:00
Wind direction
260°
Wind speed
13 kts
Lowest cloud amount
overcast
Temperature
-8°C
Dew point
-10°C
Humidity
85%
Weather condition
light snow

Airport serving Stony Rapids community in Saskatchewan, Canada. The airport is located on the southern outskirts of the town.

Climatology

Humid Continental climate (Köppen climate classification Dfc)

Runways

Designator Length Width Surface Rops
6/24 1539 30 TREATED GR Yes/Yes
Airport map: 
Aerial View: 

SKYbrary Partners:

Safety knowledge contributed by: